EW6588 Weather Reports


Display with metric or nautical units.
time (UTC)temp
F
wind
direction
speed
MPH
gust
MPH
rain 1hr
in
rain 24hr
in
rain mn
in
humidity
%
barometer
mb
20210410224651 64 360 0.0 0.0 0.00 0.61 0.61 98 1003.3
20210410221601 64 204 0.0 2.0 0.00 0.61 0.61 98 1003.4
20210410220124 63 360 0.0 3.0 0.00 0.61 0.61 98 1003.5
20210410214523 62 244 0.0 0.0 0.22 0.61 0.61 97 1003.4
20210410213036 62 166 0.0 0.0 0.42 0.61 0.61 97 1003.4
20210410211754 61 205 0.0 6.0 0.44 0.61 0.61 96 1003.6
20210410204629 63 177 1.0 15.0 0.24 0.41 0.41 96 1004.3
20210410201652 64 126 0.0 0.0 0.00 0.17 0.17 97 1002.7
20210410194629 64 123 0.0 0.0 0.01 0.17 0.17 97 1003.7
20210410193035 64 122 0.0 0.0 0.03 0.17 0.17 97 1004.0
20210410191620 64 123 0.0 0.0 0.05 0.17 0.17 97 1004.6
20210410190132 64 132 0.0 0.0 0.07 0.16 0.16 97 1005.0
20210410184556 63 207 0.0 0.0 0.07 0.16 0.16 97 1005.6
20210410181550 63 78 0.0 0.0 0.03 0.12 0.12 96 1006.5
20210410180246 63 121 0.0 0.0 0.01 0.09 0.09 96 1006.3
20210410174515 63 119 0.0 0.0 0.01 0.09 0.09 96 1006.4
20210410171620 63 221 0.0 0.0 0.03 0.09 0.09 95 1007.5
20210410170255 63 211 0.0 0.0 0.02 0.08 0.08 95 1008.3
20210410164527 63 325 0.0 0.0 0.03 0.08 0.08 96 1008.0
20210410163222 63 146 0.0 0.0 0.08 0.08 0.08 95 1008.4
20210410161511 63 273 0.0 0.0 0.06 0.06 0.06 95 1008.8
20210410160200 63 86 0.0 0.0 0.06 0.06 0.06 94 1009.3
20210410154520 63 180 0.0 0.0 0.05 0.05 0.05 93 1009.8
20210410153036 63 193 0.0 0.0 0.00 0.00 0.00 93 1009.7
20210410151652 62 87 0.0 0.0 0.00 0.00 0.00 94 1009.6
20210410150322 62 86 0.0 0.0 0.00 0.00 0.00 94 1009.6
20210410144629 62 86 0.0 0.0 0.00 0.00 0.00 94 1009.5
20210410141523 61 86 0.0 0.0 0.00 0.00 0.00 94 1009.4
20210410140404 61 76 0.0 0.0 0.00 0.00 0.00 94 1009.2
20210410134601 61 82 0.0 0.0 0.00 0.00 0.00 94 1009.0
20210410133145 61 86 0.0 0.0 0.00 0.00 0.00 95 1009.0
20210410131621 60 110 0.0 0.0 0.00 0.00 0.00 95 1009.3
20210410130118 60 83 0.0 0.0 0.00 0.00 0.00 95 1009.6
20210410124636 59 83 0.0 0.0 0.00 0.00 0.00 96 1009.9
20210410121554 59 83 0.0 0.0 0.00 0.00 0.00 96 1010.1
20210410120242 59 81 0.0 0.0 0.00 0.00 0.00 96 1010.6
20210410114526 59 81 0.0 0.0 0.00 0.00 0.00 96 1010.9
20210410113204 59 186 0.0 0.0 0.00 0.00 0.00 95 1010.9
20210410111523 59 186 0.0 0.0 0.00 0.00 0.00 95 1011.1
20210410110136 59 186 0.0 0.0 0.00 0.00 0.00 95 1011.2
20210410103041 59 186 0.0 0.0 0.00 0.00 0.00 95 1011.1